createdAt,value
2023-05-05T00:00:01.461Z,9.23
2023-05-05T00:00:11.446Z,9.21
2023-05-05T00:00:21.459Z,9.20
2023-05-05T00:00:31.454Z,9.20
2023-05-05T00:00:41.453Z,9.19
2023-05-05T00:01:01.465Z,9.18
2023-05-05T00:01:11.454Z,9.16
2023-05-05T00:01:21.460Z,9.13
2023-05-05T00:01:31.484Z,9.13
2023-05-05T00:01:41.460Z,9.11
2023-05-05T00:01:51.517Z,9.10
2023-05-05T00:02:11.561Z,9.08
2023-05-05T00:02:21.538Z,9.06
2023-05-05T00:02:31.505Z,9.04
2023-05-05T00:02:41.541Z,9.06
2023-05-05T00:02:51.489Z,9.06
2023-05-05T00:03:01.508Z,9.06
2023-05-05T00:03:21.513Z,9.07
2023-05-05T00:03:31.603Z,9.07
2023-05-05T00:03:41.510Z,9.07
2023-05-05T00:03:51.501Z,9.05
2023-05-05T00:04:01.497Z,9.05
2023-05-05T00:04:11.489Z,9.04
2023-05-05T00:04:21.498Z,9.03
2023-05-05T00:04:31.469Z,9.03
2023-05-05T00:04:51.474Z,9.03
2023-05-05T00:05:01.469Z,8.99
2023-05-05T00:05:11.472Z,8.99
2023-05-05T00:05:21.474Z,8.97
2023-05-05T00:05:31.470Z,8.94
2023-05-05T00:05:41.470Z,8.93
2023-05-05T00:05:51.475Z,8.93
2023-05-05T00:06:01.480Z,8.91
2023-05-05T00:06:11.477Z,8.90
2023-05-05T00:06:21.497Z,8.90
2023-05-05T00:06:31.477Z,8.89
2023-05-05T00:06:41.476Z,8.89
2023-05-05T00:06:51.476Z,8.88
2023-05-05T00:07:11.536Z,8.86
2023-05-05T00:07:21.482Z,8.85
2023-05-05T00:07:31.479Z,8.83
2023-05-05T00:07:41.480Z,8.82
2023-05-05T00:07:51.488Z,8.82
2023-05-05T00:08:01.478Z,8.81
2023-05-05T00:08:21.483Z,8.78
2023-05-05T00:08:31.482Z,8.76
2023-05-05T00:08:41.484Z,8.75
2023-05-05T00:08:51.491Z,8.74
2023-05-05T00:09:01.481Z,8.73
2023-05-05T00:09:11.496Z,8.71
2023-05-05T00:09:21.499Z,8.70
2023-05-05T00:09:31.497Z,8.68
2023-05-05T00:09:41.494Z,8.68
2023-05-05T00:09:51.505Z,8.67
2023-05-05T00:10:01.505Z,8.65
2023-05-05T00:10:11.500Z,8.65
2023-05-05T00:10:21.495Z,8.63
2023-05-05T00:10:41.520Z,8.60
2023-05-05T00:10:51.490Z,8.58
2023-05-05T00:11:01.501Z,8.58
2023-05-05T00:11:11.509Z,8.57
2023-05-05T00:11:21.499Z,8.56
2023-05-05T00:11:31.496Z,8.56
2023-05-05T00:11:51.499Z,8.56
2023-05-05T00:12:01.517Z,8.57
2023-05-05T00:12:11.497Z,8.59
2023-05-05T00:12:21.500Z,8.59
2023-05-05T00:12:31.512Z,8.61
2023-05-05T00:12:41.537Z,8.61
2023-05-05T00:12:51.506Z,8.62
2023-05-05T00:13:11.648Z,8.63
2023-05-05T00:13:21.519Z,8.62
2023-05-05T00:13:31.508Z,8.61
2023-05-05T00:13:41.512Z,8.60
2023-05-05T00:13:51.563Z,8.61
2023-05-05T00:14:01.510Z,8.60
2023-05-05T00:14:11.511Z,8.60
2023-05-05T00:14:21.506Z,8.58
2023-05-05T00:14:31.507Z,8.58
2023-05-05T00:14:41.523Z,8.58
2023-05-05T00:14:51.509Z,8.59
2023-05-05T00:15:01.520Z,8.57
2023-05-05T00:15:11.509Z,8.58
2023-05-05T00:15:21.511Z,8.56
2023-05-05T00:15:31.543Z,8.55
2023-05-05T00:15:51.529Z,8.52
2023-05-05T00:16:01.514Z,8.52
2023-05-05T00:16:11.528Z,8.52
2023-05-05T00:16:21.525Z,8.53
2023-05-05T00:16:31.550Z,8.55
2023-05-05T00:16:41.527Z,8.56
2023-05-05T00:16:51.529Z,8.57
2023-05-05T00:17:01.546Z,8.57
2023-05-05T00:17:11.676Z,8.59
2023-05-05T00:17:21.519Z,8.58
2023-05-05T00:17:41.569Z,8.61
2023-05-05T00:17:51.559Z,8.62
2023-05-05T00:18:01.732Z,8.62
2023-05-05T00:18:11.523Z,8.63
2023-05-05T00:18:21.532Z,8.65
2023-05-05T00:18:31.525Z,8.67
2023-05-05T00:18:51.535Z,8.66
2023-05-05T00:19:01.543Z,8.64
2023-05-05T00:19:11.528Z,8.63
2023-05-05T00:19:21.528Z,8.65
2023-05-05T00:19:31.532Z,8.62
2023-05-05T00:19:41.542Z,8.63
2023-05-05T00:19:51.543Z,8.62
2023-05-05T00:20:11.538Z,8.61
2023-05-05T00:20:21.536Z,8.59
2023-05-05T00:20:31.543Z,8.59
2023-05-05T00:20:41.537Z,8.58
2023-05-05T00:20:51.542Z,8.55
2023-05-05T00:21:01.543Z,8.55
2023-05-05T00:21:11.536Z,8.54
2023-05-05T00:21:21.541Z,8.53
2023-05-05T00:21:31.549Z,8.52
2023-05-05T00:21:41.538Z,8.52
2023-05-05T00:21:51.548Z,8.51
2023-05-05T00:22:01.565Z,8.50
2023-05-05T00:22:11.570Z,8.48
2023-05-05T00:22:21.602Z,8.47
2023-05-05T00:22:41.552Z,8.46
2023-05-05T00:22:51.549Z,8.46
2023-05-05T00:23:01.561Z,8.44
2023-05-05T00:23:11.550Z,8.43
2023-05-05T00:23:21.547Z,8.43
2023-05-05T00:23:31.550Z,8.42
2023-05-05T00:23:41.550Z,8.41
2023-05-05T00:23:51.557Z,8.40
2023-05-05T00:24:01.579Z,8.42
2023-05-05T00:24:21.562Z,8.40
2023-05-05T00:24:31.586Z,8.41
2023-05-05T00:24:41.558Z,8.41
2023-05-05T00:24:51.559Z,8.41
2023-05-05T00:25:01.556Z,8.40
2023-05-05T00:25:11.563Z,8.41
2023-05-05T00:25:21.559Z,8.41
2023-05-05T00:25:31.576Z,8.37
2023-05-05T00:25:41.575Z,8.38
2023-05-05T00:25:51.557Z,8.38
2023-05-05T00:26:01.599Z,8.37
2023-05-05T00:26:11.563Z,8.35
2023-05-05T00:26:21.559Z,8.34
2023-05-05T00:26:31.588Z,8.32
2023-05-05T00:26:41.564Z,8.30
2023-05-05T00:26:51.567Z,8.28
2023-05-05T00:27:11.568Z,8.26
2023-05-05T00:27:21.596Z,8.22
2023-05-05T00:27:31.569Z,8.22
2023-05-05T00:27:41.566Z,8.20
2023-05-05T00:27:51.574Z,8.19
2023-05-05T00:28:01.576Z,8.20
2023-05-05T00:28:11.571Z,8.17
2023-05-05T00:28:31.603Z,8.15
2023-05-05T00:28:41.581Z,8.17
2023-05-05T00:28:51.578Z,8.16
2023-05-05T00:29:01.578Z,8.15
2023-05-05T00:29:11.581Z,8.16
2023-05-05T00:29:21.614Z,8.17
2023-05-05T00:29:31.587Z,8.15
2023-05-05T00:29:41.582Z,8.16
2023-05-05T00:29:51.582Z,8.15
2023-05-05T00:30:01.584Z,8.14
2023-05-05T00:30:11.586Z,8.13
2023-05-05T00:30:31.619Z,8.16
2023-05-05T00:30:41.586Z,8.14
2023-05-05T00:30:51.644Z,8.14
2023-05-05T00:31:01.777Z,8.13
2023-05-05T00:31:11.629Z,8.12
2023-05-05T00:31:21.620Z,8.11
2023-05-05T00:31:31.636Z,8.11
2023-05-05T00:31:41.640Z,8.11
2023-05-05T00:31:51.605Z,8.11
2023-05-05T00:32:01.617Z,8.11
2023-05-05T00:32:21.601Z,8.10
2023-05-05T00:32:31.642Z,8.09
2023-05-05T00:32:41.684Z,8.09
2023-05-05T00:32:51.637Z,8.07
2023-05-05T00:33:01.755Z,8.07
2023-05-05T00:33:11.601Z,8.05
2023-05-05T00:33:21.603Z,8.03
2023-05-05T00:33:31.594Z,8.04
2023-05-05T00:33:41.598Z,8.01
2023-05-05T00:33:51.611Z,7.99
2023-05-05T00:34:01.605Z,7.98
2023-05-05T00:34:11.639Z,7.96
2023-05-05T00:34:21.623Z,7.95
2023-05-05T00:34:31.604Z,7.91
2023-05-05T00:34:41.605Z,7.89
2023-05-05T00:34:51.614Z,7.87
2023-05-05T00:35:01.611Z,7.86
2023-05-05T00:35:21.615Z,7.84
2023-05-05T00:35:31.639Z,7.82
2023-05-05T00:35:41.614Z,7.80
2023-05-05T00:35:51.613Z,7.77
2023-05-05T00:36:01.617Z,7.76
2023-05-05T00:36:11.613Z,7.73
2023-05-05T00:36:21.616Z,7.72
2023-05-05T00:36:41.612Z,7.69
2023-05-05T00:36:51.647Z,7.67
2023-05-05T00:37:01.625Z,7.65
2023-05-05T00:37:11.614Z,7.64
2023-05-05T00:37:21.660Z,7.62
2023-05-05T00:37:31.623Z,7.62
2023-05-05T00:37:41.622Z,7.60
2023-05-05T00:38:01.617Z,7.59
2023-05-05T00:38:11.643Z,7.56
2023-05-05T00:38:21.626Z,7.57
2023-05-05T00:38:31.626Z,7.57
2023-05-05T00:38:41.630Z,7.53
2023-05-05T00:38:51.623Z,7.53
2023-05-05T00:39:01.625Z,7.51
2023-05-05T00:39:21.629Z,7.49
2023-05-05T00:39:31.633Z,7.46
2023-05-05T00:39:41.629Z,7.45
2023-05-05T00:39:51.635Z,7.43
2023-05-05T00:40:01.647Z,7.41
2023-05-05T00:40:11.648Z,7.39
2023-05-05T00:40:21.635Z,7.37
2023-05-05T00:40:31.637Z,7.35
2023-05-05T00:40:41.629Z,7.32
2023-05-05T00:40:51.639Z,7.30
2023-05-05T00:41:01.646Z,7.30
2023-05-05T00:41:11.632Z,7.29
2023-05-05T00:41:21.669Z,7.27
2023-05-05T00:41:31.636Z,7.27
2023-05-05T00:41:41.655Z,7.23
2023-05-05T00:41:51.649Z,7.23
2023-05-05T00:42:01.674Z,7.20
2023-05-05T00:42:11.640Z,7.19
2023-05-05T00:42:21.647Z,7.17
2023-05-05T00:42:31.660Z,7.16
2023-05-05T00:42:41.638Z,7.14
2023-05-05T00:42:51.692Z,7.13
2023-05-05T00:43:11.647Z,7.11
2023-05-05T00:43:21.666Z,7.10
2023-05-05T00:43:31.653Z,7.11
2023-05-05T00:43:41.641Z,7.10
2023-05-05T00:43:51.648Z,7.07
2023-05-05T00:44:01.667Z,7.07
2023-05-05T00:44:11.658Z,7.05
2023-05-05T00:44:21.660Z,7.05
2023-05-05T00:44:31.652Z,7.05
2023-05-05T00:44:41.671Z,7.03
2023-05-05T00:44:51.662Z,7.02
2023-05-05T00:45:01.666Z,7.01
2023-05-05T00:45:11.688Z,7.02
2023-05-05T00:45:21.659Z,7.01
2023-05-05T00:45:31.663Z,7.00
2023-05-05T00:45:41.662Z,7.00
2023-05-05T00:45:51.674Z,6.99
2023-05-05T00:46:01.696Z,6.95
2023-05-05T00:46:21.720Z,6.93
2023-05-05T00:46:31.715Z,6.91
2023-05-05T00:46:41.695Z,6.92
2023-05-05T00:46:51.697Z,6.92
2023-05-05T00:47:01.687Z,6.91
2023-05-05T00:47:11.682Z,6.92
2023-05-05T00:47:21.665Z,6.91
2023-05-05T00:47:31.702Z,6.92
2023-05-05T00:47:41.683Z,6.92
2023-05-05T00:47:51.701Z,6.92
2023-05-05T00:48:11.710Z,6.92
2023-05-05T00:48:21.671Z,6.92
2023-05-05T00:48:31.695Z,6.93
2023-05-05T00:48:41.678Z,6.92
2023-05-05T00:48:51.730Z,6.92
2023-05-05T00:49:01.704Z,6.92
2023-05-05T00:49:11.691Z,6.91
2023-05-05T00:49:21.713Z,6.91
2023-05-05T00:49:31.683Z,6.91
2023-05-05T00:49:51.677Z,6.93
2023-05-05T00:50:01.717Z,6.92
2023-05-05T00:50:11.678Z,6.92
2023-05-05T00:50:21.702Z,6.91
2023-05-05T00:50:31.700Z,6.92
2023-05-05T00:50:41.680Z,6.91
2023-05-05T00:50:51.684Z,6.91
2023-05-05T00:51:01.710Z,6.88
2023-05-05T00:51:11.686Z,6.88
2023-05-05T00:51:21.690Z,6.88
2023-05-05T00:51:31.698Z,6.87
2023-05-05T00:51:41.680Z,6.87
2023-05-05T00:51:51.698Z,6.87
2023-05-05T00:52:01.690Z,6.86
2023-05-05T00:52:11.689Z,6.86
2023-05-05T00:52:21.685Z,6.85
2023-05-05T00:52:31.691Z,6.85
2023-05-05T00:52:41.689Z,6.85
2023-05-05T00:52:51.695Z,6.83
2023-05-05T00:53:01.695Z,6.83
2023-05-05T00:53:11.688Z,6.81
2023-05-05T00:53:21.692Z,6.82
2023-05-05T00:53:31.690Z,6.83
2023-05-05T00:53:41.693Z,6.82
2023-05-05T00:53:51.713Z,6.84
2023-05-05T00:54:01.706Z,6.84
2023-05-05T00:54:11.698Z,6.83
2023-05-05T00:54:21.698Z,6.84
2023-05-05T00:54:31.704Z,6.82
2023-05-05T00:54:41.700Z,6.80
2023-05-05T00:54:51.696Z,6.79
2023-05-05T00:55:11.698Z,6.78
2023-05-05T00:55:21.772Z,6.78
2023-05-05T00:55:31.734Z,6.77
2023-05-05T00:55:41.714Z,6.77
2023-05-05T00:55:51.700Z,6.76
2023-05-05T00:56:01.710Z,6.76
2023-05-05T00:56:11.700Z,6.75
2023-05-05T00:56:31.720Z,6.73
2023-05-05T00:56:41.718Z,6.72
2023-05-05T00:56:51.708Z,6.71
2023-05-05T00:57:01.714Z,6.70
2023-05-05T00:57:11.728Z,6.70
2023-05-05T00:57:21.712Z,6.70
2023-05-05T00:57:31.750Z,6.68
2023-05-05T00:57:51.710Z,6.68
2023-05-05T00:58:01.711Z,6.65
2023-05-05T00:58:11.713Z,6.63
2023-05-05T00:58:21.724Z,6.63
2023-05-05T00:58:31.716Z,6.61
2023-05-05T00:58:41.713Z,6.59
2023-05-05T00:58:51.733Z,6.59
2023-05-05T00:59:01.716Z,6.58
2023-05-05T00:59:11.737Z,6.56
2023-05-05T00:59:21.722Z,6.54
2023-05-05T00:59:31.739Z,6.54
2023-05-05T00:59:41.721Z,6.52
2023-05-05T01:00:01.724Z,6.49
2023-05-05T01:00:11.746Z,6.47
2023-05-05T01:00:21.733Z,6.47
2023-05-05T01:00:31.720Z,6.46
2023-05-05T01:00:41.758Z,6.44
2023-05-05T01:00:51.731Z,6.44
2023-05-05T01:01:01.724Z,6.41
2023-05-05T01:01:11.774Z,6.40
2023-05-05T01:01:21.760Z,6.40
2023-05-05T01:01:31.862Z,6.38
2023-05-05T01:01:51.745Z,6.37
2023-05-05T01:02:01.881Z,6.38
2023-05-05T01:02:11.741Z,6.37
2023-05-05T01:02:21.752Z,6.37
2023-05-05T01:02:31.801Z,6.37
2023-05-05T01:02:41.793Z,6.36
2023-05-05T01:02:51.820Z,6.36
2023-05-05T01:03:01.837Z,6.35
2023-05-05T01:03:21.786Z,6.34
2023-05-05T01:03:31.795Z,6.33
2023-05-05T01:03:41.974Z,6.33
2023-05-05T01:03:51.826Z,6.32
2023-05-05T01:04:01.952Z,6.31
2023-05-05T01:04:11.743Z,6.31
2023-05-05T01:04:31.761Z,6.32
2023-05-05T01:04:41.745Z,6.33
2023-05-05T01:04:51.738Z,6.35
2023-05-05T01:05:01.747Z,6.35
2023-05-05T01:05:11.745Z,6.39
2023-05-05T01:05:21.760Z,6.42
2023-05-05T01:05:41.788Z,6.44
2023-05-05T01:05:51.755Z,6.44
2023-05-05T01:06:01.747Z,6.45
2023-05-05T01:06:11.755Z,6.47
2023-05-05T01:06:21.748Z,6.47
2023-05-05T01:06:31.760Z,6.46
2023-05-05T01:06:51.784Z,6.48
2023-05-05T01:07:01.748Z,6.50
2023-05-05T01:07:11.752Z,6.48
2023-05-05T01:07:21.750Z,6.49
2023-05-05T01:07:31.771Z,6.48
2023-05-05T01:07:41.751Z,6.48
2023-05-05T01:08:01.755Z,6.48
2023-05-05T01:08:11.760Z,6.48
2023-05-05T01:08:21.753Z,6.47
2023-05-05T01:08:31.766Z,6.47
2023-05-05T01:08:41.769Z,6.45
2023-05-05T01:08:51.753Z,6.45
2023-05-05T01:09:01.790Z,6.47
2023-05-05T01:09:11.760Z,6.46
2023-05-05T01:09:21.766Z,6.45
2023-05-05T01:09:31.780Z,6.43
2023-05-05T01:09:41.756Z,6.43
2023-05-05T01:10:00.868Z,6.41
2023-05-05T01:10:17.924Z,6.40
2023-05-05T01:10:20.332Z,6.33
2023-05-05T01:10:23.006Z,6.33
2023-05-05T01:10:31.761Z,6.33
2023-05-05T01:10:41.753Z,6.33
2023-05-05T01:10:51.781Z,6.34
2023-05-05T01:11:11.766Z,6.37
2023-05-05T01:11:21.774Z,6.39
2023-05-05T01:11:31.763Z,6.39
2023-05-05T01:11:41.767Z,6.39
2023-05-05T01:11:51.766Z,6.40
2023-05-05T01:12:01.800Z,6.40
2023-05-05T01:12:21.796Z,6.40
2023-05-05T01:12:31.849Z,6.39
2023-05-05T01:12:41.797Z,6.37
2023-05-05T01:12:51.804Z,6.38
2023-05-05T01:13:01.857Z,6.36
2023-05-05T01:13:11.817Z,6.35
2023-05-05T01:13:21.784Z,6.34
2023-05-05T01:13:31.784Z,6.32
2023-05-05T01:13:41.780Z,6.31
2023-05-05T01:13:51.779Z,6.31
2023-05-05T01:14:11.784Z,6.26
2023-05-05T01:14:21.797Z,6.28
2023-05-05T01:14:31.783Z,6.27
2023-05-05T01:14:41.796Z,6.27
2023-05-05T01:14:51.792Z,6.28
2023-05-05T01:15:01.819Z,6.27
2023-05-05T01:15:11.790Z,6.28
2023-05-05T01:15:31.801Z,6.26
2023-05-05T01:15:41.788Z,6.27
2023-05-05T01:15:51.831Z,6.26
2023-05-05T01:16:01.801Z,6.26
2023-05-05T01:16:11.850Z,6.27
2023-05-05T01:16:21.811Z,6.26
2023-05-05T01:16:31.868Z,6.28
2023-05-05T01:16:41.894Z,6.28
2023-05-05T01:16:51.814Z,6.28
2023-05-05T01:17:01.800Z,6.29
2023-05-05T01:17:11.794Z,6.28
2023-05-05T01:17:21.795Z,6.29
2023-05-05T01:17:31.811Z,6.28
2023-05-05T01:17:41.914Z,6.29
2023-05-05T01:18:01.826Z,6.27
2023-05-05T01:18:11.823Z,6.27
2023-05-05T01:18:21.799Z,6.28
2023-05-05T01:18:31.807Z,6.26
2023-05-05T01:18:41.800Z,6.28
2023-05-05T01:18:51.802Z,6.28
2023-05-05T01:19:01.809Z,6.27
2023-05-05T01:19:11.813Z,6.27
2023-05-05T01:19:21.811Z,6.26
2023-05-05T01:19:41.804Z,6.27
2023-05-05T01:19:51.839Z,6.27
2023-05-05T01:20:01.834Z,6.26
2023-05-05T01:20:11.847Z,6.28
2023-05-05T01:20:21.809Z,6.28
2023-05-05T01:20:31.829Z,6.28
2023-05-05T01:20:41.802Z,6.29
2023-05-05T01:21:01.815Z,6.30
2023-05-05T01:21:11.811Z,6.32
2023-05-05T01:21:21.821Z,6.31
2023-05-05T01:21:31.813Z,6.31
2023-05-05T01:21:41.817Z,6.33
2023-05-05T01:21:51.849Z,6.33
2023-05-05T01:22:01.813Z,6.36
2023-05-05T01:22:11.831Z,6.35
2023-05-05T01:22:21.818Z,6.37
2023-05-05T01:22:31.830Z,6.38
2023-05-05T01:22:41.819Z,6.39
2023-05-05T01:22:51.841Z,6.39
2023-05-05T01:23:01.818Z,6.37
2023-05-05T01:23:11.818Z,6.36
2023-05-05T01:23:21.817Z,6.36
2023-05-05T01:23:41.822Z,6.37
2023-05-05T01:23:51.822Z,6.35
2023-05-05T01:24:01.839Z,6.34
2023-05-05T01:24:11.825Z,6.33
2023-05-05T01:24:21.822Z,6.32
2023-05-05T01:24:31.826Z,6.30
2023-05-05T01:24:41.840Z,6.28
2023-05-05T01:24:51.823Z,6.27
2023-05-05T01:25:11.832Z,6.26
2023-05-05T01:25:21.856Z,6.25
2023-05-05T01:25:31.879Z,6.22
2023-05-05T01:25:41.838Z,6.21
2023-05-05T01:25:51.853Z,6.19
2023-05-05T01:26:01.829Z,6.19
2023-05-05T01:26:11.829Z,6.16
2023-05-05T01:26:21.837Z,6.16
2023-05-05T01:26:31.833Z,6.15
2023-05-05T01:26:41.830Z,6.13
2023-05-05T01:27:01.833Z,6.13
2023-05-05T01:27:11.833Z,6.12
2023-05-05T01:27:21.848Z,6.13
2023-05-05T01:27:31.847Z,6.13
2023-05-05T01:27:41.868Z,6.12
2023-05-05T01:27:51.837Z,6.12
2023-05-05T01:28:01.838Z,6.13
2023-05-05T01:28:11.844Z,6.11
2023-05-05T01:28:21.860Z,6.10
2023-05-05T01:28:41.849Z,6.12
2023-05-05T01:28:51.852Z,6.12
2023-05-05T01:29:01.844Z,6.11
2023-05-05T01:29:11.841Z,6.13
2023-05-05T01:29:21.866Z,6.10
2023-05-05T01:29:31.843Z,6.11
2023-05-05T01:29:41.851Z,6.10
2023-05-05T01:29:51.882Z,6.07
2023-05-05T01:30:01.889Z,6.05
2023-05-05T01:30:11.846Z,6.05
2023-05-05T01:30:31.865Z,6.04
2023-05-05T01:30:41.850Z,6.02
2023-05-05T01:30:51.854Z,6.03
2023-05-05T01:31:01.857Z,6.02
2023-05-05T01:31:11.887Z,6.02
2023-05-05T01:31:21.935Z,6.01
2023-05-05T01:31:31.886Z,6.00
2023-05-05T01:31:41.987Z,6.00
2023-05-05T01:31:52.111Z,5.99
2023-05-05T01:32:01.889Z,5.97
2023-05-05T01:32:11.859Z,5.96
2023-05-05T01:32:21.895Z,5.96
2023-05-05T01:32:31.919Z,5.95
2023-05-05T01:32:41.908Z,5.93
2023-05-05T01:32:51.900Z,5.92
2023-05-05T01:33:01.868Z,5.93
2023-05-05T01:33:11.863Z,5.92
2023-05-05T01:33:21.901Z,5.90
2023-05-05T01:33:41.863Z,5.90
2023-05-05T01:33:51.896Z,5.90
2023-05-05T01:34:01.886Z,5.88
2023-05-05T01:34:11.874Z,5.89
2023-05-05T01:34:21.875Z,5.86
2023-05-05T01:34:31.867Z,5.87
2023-05-05T01:34:41.893Z,5.84
2023-05-05T01:34:51.877Z,5.83
2023-05-05T01:35:01.868Z,5.83
2023-05-05T01:35:11.873Z,5.81
2023-05-05T01:35:21.883Z,5.80
2023-05-05T01:35:31.906Z,5.79
2023-05-05T01:35:41.879Z,5.77
2023-05-05T01:35:51.885Z,5.76
2023-05-05T01:36:01.880Z,5.76
2023-05-05T01:36:11.876Z,5.75
2023-05-05T01:36:21.903Z,5.76
2023-05-05T01:36:31.879Z,5.74
2023-05-05T01:36:41.882Z,5.76
2023-05-05T01:36:51.938Z,5.75
2023-05-05T01:37:11.886Z,5.70
2023-05-05T01:37:21.877Z,5.69
2023-05-05T01:37:31.916Z,5.67
2023-05-05T01:37:41.880Z,5.66
2023-05-05T01:37:51.900Z,5.66
2023-05-05T01:38:01.885Z,5.65
2023-05-05T01:38:11.909Z,5.64
2023-05-05T01:38:21.897Z,5.65
2023-05-05T01:38:41.895Z,5.65
2023-05-05T01:38:51.887Z,5.64
2023-05-05T01:39:01.905Z,5.64
2023-05-05T01:39:11.895Z,5.64
2023-05-05T01:39:21.890Z,5.63
2023-05-05T01:39:31.897Z,5.62
2023-05-05T01:39:41.905Z,5.62
2023-05-05T01:39:51.896Z,5.60
2023-05-05T01:40:01.899Z,5.60
2023-05-05T01:40:11.892Z,5.61
2023-05-05T01:40:21.896Z,5.60
2023-05-05T01:40:31.888Z,5.59
2023-05-05T01:40:41.893Z,5.59
2023-05-05T01:40:51.930Z,5.57
2023-05-05T01:41:01.904Z,5.58
2023-05-05T01:41:11.915Z,5.58
2023-05-05T01:41:31.890Z,5.54
2023-05-05T01:41:41.903Z,5.54
2023-05-05T01:41:51.901Z,5.54
2023-05-05T01:42:01.902Z,5.54
2023-05-05T01:42:11.893Z,5.53
2023-05-05T01:42:21.903Z,5.52
2023-05-05T01:42:31.936Z,5.53
2023-05-05T01:42:41.912Z,5.53
2023-05-05T01:42:51.905Z,5.53
2023-05-05T01:43:01.906Z,5.52
2023-05-05T01:43:11.926Z,5.54
2023-05-05T01:43:21.910Z,5.51
2023-05-05T01:43:31.903Z,5.52
2023-05-05T01:43:41.906Z,5.53
2023-05-05T01:43:51.903Z,5.54
2023-05-05T01:44:01.916Z,5.55
2023-05-05T01:44:11.932Z,5.53
2023-05-05T01:44:21.911Z,5.53
2023-05-05T01:44:31.903Z,5.55
2023-05-05T01:44:41.919Z,5.54
2023-05-05T01:44:51.934Z,5.56
2023-05-05T01:45:01.919Z,5.55
2023-05-05T01:45:11.921Z,5.55
2023-05-05T01:45:21.930Z,5.55
2023-05-05T01:45:31.951Z,5.55
2023-05-05T01:45:41.964Z,5.55
2023-05-05T01:46:01.958Z,5.53
2023-05-05T01:46:11.988Z,5.54
2023-05-05T01:46:21.940Z,5.53
2023-05-05T01:46:31.913Z,5.53
2023-05-05T01:46:41.922Z,5.52
2023-05-05T01:46:51.929Z,5.52
2023-05-05T01:47:01.926Z,5.53
2023-05-05T01:47:11.925Z,5.54
2023-05-05T01:47:21.959Z,5.52
2023-05-05T01:47:31.959Z,5.54
2023-05-05T01:47:41.957Z,5.54
2023-05-05T01:47:51.941Z,5.53
2023-05-05T01:48:01.963Z,5.51
2023-05-05T01:48:11.927Z,5.49
2023-05-05T01:48:31.927Z,5.47
2023-05-05T01:48:42.391Z,5.46
2023-05-05T01:48:51.934Z,5.44
2023-05-05T01:49:01.936Z,5.43
2023-05-05T01:49:12.012Z,5.44
2023-05-05T01:49:21.970Z,5.43
2023-05-05T01:49:31.938Z,5.43
2023-05-05T01:49:41.941Z,5.43
2023-05-05T01:49:51.956Z,5.43
2023-05-05T01:50:01.931Z,5.43
2023-05-05T01:50:11.945Z,5.42
2023-05-05T01:50:31.937Z,5.42
2023-05-05T01:50:41.956Z,5.42
2023-05-05T01:50:51.942Z,5.41
2023-05-05T01:51:01.942Z,5.42
2023-05-05T01:51:11.982Z,5.42
2023-05-05T01:51:21.940Z,5.41
2023-05-05T01:51:31.942Z,5.42
2023-05-05T01:51:41.936Z,5.42
2023-05-05T01:51:51.944Z,5.42
2023-05-05T01:52:01.945Z,5.42
2023-05-05T01:52:11.944Z,5.42
2023-05-05T01:52:21.978Z,5.42
2023-05-05T01:52:31.956Z,5.47
2023-05-05T01:52:51.947Z,5.51
2023-05-05T01:53:01.948Z,5.53
2023-05-05T01:53:11.977Z,5.56
2023-05-05T01:53:21.961Z,5.58
2023-05-05T01:53:31.949Z,5.60
2023-05-05T01:53:41.960Z,5.61
2023-05-05T01:53:51.951Z,5.62
2023-05-05T01:54:01.952Z,5.62
2023-05-05T01:54:11.953Z,5.64
2023-05-05T01:54:21.955Z,5.65
2023-05-05T01:54:31.973Z,5.69
2023-05-05T01:54:41.969Z,5.69
2023-05-05T01:54:51.953Z,5.68
2023-05-05T01:55:01.973Z,5.68
2023-05-05T01:55:11.980Z,5.68
2023-05-05T01:55:21.973Z,5.67
2023-05-05T01:55:31.965Z,5.68
2023-05-05T01:55:41.960Z,5.67
2023-05-05T01:55:52.018Z,5.69
2023-05-05T01:56:01.968Z,5.67
2023-05-05T01:56:11.966Z,5.69
2023-05-05T01:56:31.981Z,5.67
2023-05-05T01:56:41.971Z,5.67
2023-05-05T01:56:51.966Z,5.67
2023-05-05T01:57:01.967Z,5.65
2023-05-05T01:57:11.974Z,5.65
2023-05-05T01:57:21.971Z,5.67
2023-05-05T01:57:32.008Z,5.64
2023-05-05T01:57:41.978Z,5.64
2023-05-05T01:57:51.976Z,5.65
2023-05-05T01:58:01.975Z,5.65
2023-05-05T01:58:11.986Z,5.65
2023-05-05T01:58:31.974Z,5.65
2023-05-05T01:58:41.994Z,5.66
2023-05-05T01:58:51.973Z,5.67
2023-05-05T01:59:01.981Z,5.68
2023-05-05T01:59:12.222Z,5.67
2023-05-05T01:59:21.991Z,5.68
2023-05-05T01:59:31.981Z,5.68
2023-05-05T01:59:51.979Z,5.73
2023-05-05T02:00:01.988Z,5.74
2023-05-05T02:00:12.005Z,5.75
2023-05-05T02:00:21.983Z,5.77
2023-05-05T02:00:31.989Z,5.78
2023-05-05T02:00:41.989Z,5.79
2023-05-05T02:00:51.987Z,5.80
2023-05-05T02:01:02.020Z,5.80
2023-05-05T02:01:12.055Z,5.80
2023-05-05T02:01:22.045Z,5.79
2023-05-05T02:01:42.032Z,5.77
2023-05-05T02:01:51.996Z,5.78
2023-05-05T02:02:02.007Z,5.79
2023-05-05T02:02:12.084Z,5.77
2023-05-05T02:02:22.014Z,5.76
2023-05-05T02:02:32.067Z,5.76
2023-05-05T02:02:42.086Z,5.75
2023-05-05T02:02:52.084Z,5.74
2023-05-05T02:03:02.099Z,5.73
2023-05-05T02:03:12.050Z,5.71
2023-05-05T02:03:22.097Z,5.71
2023-05-05T02:03:41.992Z,5.71
2023-05-05T02:03:51.996Z,5.71
2023-05-05T02:04:02.033Z,5.72
2023-05-05T02:04:12.009Z,5.72
2023-05-05T02:04:22.002Z,5.69
2023-05-05T02:04:31.998Z,5.67
2023-05-05T02:04:42.005Z,5.67
2023-05-05T02:04:51.999Z,5.67
2023-05-05T02:05:12.002Z,5.67
2023-05-05T02:05:22.001Z,5.67
2023-05-05T02:05:32.036Z,5.63
2023-05-05T02:05:42.030Z,5.64
2023-05-05T02:05:52.002Z,5.63
2023-05-05T02:06:02.029Z,5.64
2023-05-05T02:06:12.011Z,5.64
2023-05-05T02:06:22.011Z,5.64
2023-05-05T02:06:32.021Z,5.63
2023-05-05T02:06:42.013Z,5.64
2023-05-05T02:06:52.029Z,5.64
2023-05-05T02:07:12.000Z,5.64
2023-05-05T02:07:22.017Z,5.63
2023-05-05T02:07:32.046Z,5.64
2023-05-05T02:07:42.016Z,5.64
2023-05-05T02:07:52.025Z,5.64
2023-05-05T02:08:02.005Z,5.63
2023-05-05T02:08:12.020Z,5.64
2023-05-05T02:08:22.020Z,5.63
2023-05-05T02:08:42.025Z,5.63
2023-05-05T02:08:52.020Z,5.62
2023-05-05T02:09:02.050Z,5.61
2023-05-05T02:09:12.027Z,5.61
2023-05-05T02:09:22.024Z,5.62
2023-05-05T02:09:32.025Z,5.62
2023-05-05T02:09:42.031Z,5.61
2023-05-05T02:09:52.054Z,5.60
2023-05-05T02:10:02.043Z,5.61
2023-05-05T02:10:12.027Z,5.57
2023-05-05T02:10:22.031Z,5.57
2023-05-05T02:10:32.074Z,5.58
2023-05-05T02:10:42.034Z,5.59
2023-05-05T02:11:02.051Z,5.63
2023-05-05T02:11:12.041Z,5.64
2023-05-05T02:11:22.047Z,5.65
2023-05-05T02:11:32.070Z,5.67
2023-05-05T02:11:42.048Z,5.68
2023-05-05T02:11:52.035Z,5.68
2023-05-05T02:12:02.052Z,5.68
2023-05-05T02:12:12.043Z,5.68
2023-05-05T02:12:22.037Z,5.69
2023-05-05T02:12:42.084Z,5.68
2023-05-05T02:12:52.083Z,5.69
2023-05-05T02:13:02.061Z,5.67
2023-05-05T02:13:12.140Z,5.67
2023-05-05T02:13:22.117Z,5.66
2023-05-05T02:13:32.069Z,5.67
2023-05-05T02:13:52.089Z,5.63
2023-05-05T02:14:02.095Z,5.63
2023-05-05T02:14:12.085Z,5.62
2023-05-05T02:14:22.046Z,5.60
2023-05-05T02:14:32.061Z,5.58
2023-05-05T02:14:42.061Z,5.56
2023-05-05T02:14:52.066Z,5.56
2023-05-05T02:15:02.059Z,5.55
2023-05-05T02:15:22.062Z,5.54
2023-05-05T02:15:32.087Z,5.54
2023-05-05T02:15:42.104Z,5.51
2023-05-05T02:15:52.113Z,5.48
2023-05-05T02:16:02.091Z,5.48
2023-05-05T02:16:12.111Z,5.45
2023-05-05T02:16:22.112Z,5.44
2023-05-05T02:16:32.059Z,5.42
2023-05-05T02:16:42.069Z,5.41
2023-05-05T02:16:52.068Z,5.41
2023-05-05T02:17:02.087Z,5.41
2023-05-05T02:17:12.084Z,5.39
2023-05-05T02:17:22.084Z,5.38
2023-05-05T02:17:32.103Z,5.37
2023-05-05T02:17:42.127Z,5.38
2023-05-05T02:17:52.108Z,5.38
2023-05-05T02:18:02.178Z,5.37
2023-05-05T02:18:12.072Z,5.36
2023-05-05T02:18:22.100Z,5.35
2023-05-05T02:18:42.074Z,5.32
2023-05-05T02:18:52.066Z,5.31
2023-05-05T02:19:02.072Z,5.31
2023-05-05T02:19:12.130Z,5.31
2023-05-05T02:19:22.071Z,5.31
2023-05-05T02:19:32.084Z,5.29
2023-05-05T02:19:42.082Z,5.29
2023-05-05T02:19:52.076Z,5.29
2023-05-05T02:20:02.088Z,5.30
2023-05-05T02:20:22.089Z,5.31
2023-05-05T02:20:32.103Z,5.31
2023-05-05T02:20:42.083Z,5.33
2023-05-05T02:20:52.089Z,5.34
2023-05-05T02:21:02.082Z,5.38
2023-05-05T02:21:12.105Z,5.39
2023-05-05T02:21:32.086Z,5.40
2023-05-05T02:21:42.082Z,5.41
2023-05-05T02:21:52.083Z,5.40
2023-05-05T02:22:02.091Z,5.40
2023-05-05T02:22:12.101Z,5.40
2023-05-05T02:22:22.088Z,5.41
2023-05-05T02:22:32.128Z,5.41
2023-05-05T02:22:42.087Z,5.40
2023-05-05T02:22:52.127Z,5.41
2023-05-05T02:23:02.108Z,5.40
2023-05-05T02:23:12.093Z,5.40
2023-05-05T02:23:22.089Z,5.40
2023-05-05T02:23:42.106Z,5.39
2023-05-05T02:23:52.158Z,5.37
2023-05-05T02:24:02.099Z,5.36
2023-05-05T02:24:12.121Z,5.35
2023-05-05T02:24:22.098Z,5.35
2023-05-05T02:24:32.093Z,5.33
2023-05-05T02:24:42.113Z,5.32
2023-05-05T02:24:52.112Z,5.32
2023-05-05T02:25:02.099Z,5.31
2023-05-05T02:25:12.121Z,5.30